Time;durP1;ratioP1;P1;durP2;ratioP2;P2;SDS_P1;SDS_P2;PMS_P1;PMS_P2;Temp;Humidity;BMP_temperature;BMP_pressure;BME280_temperature;BME280_humidity;BME280_pressure;Samples;Min_cycle;Max_cycle;Signal;HPM_P1;HPM_P2
2021/03/18 00:01:14;;;;;;;6.83;4.70;;;0.50;99.90;;;;;;5093031;28;20796;-82
2021/03/18 00:03:42;;;;;;;4.93;4.47;;;0.50;99.90;;;;;;5093285;28;20783;-82
2021/03/18 00:06:11;;;;;;;5.73;4.57;;;0.40;99.90;;;;;;5093222;28;20451;-82
2021/03/18 00:08:39;;;;;;;6.03;4.27;;;0.40;99.90;;;;;;5093357;28;20433;-82
2021/03/18 00:11:07;;;;;;;6.10;3.97;;;0.30;99.90;;;;;;5093354;28;20458;-82
2021/03/18 00:13:33;;;;;;;5.30;4.00;;;0.30;99.90;;;;;;5093595;28;20454;-82
2021/03/18 00:16:00;;;;;;;6.53;4.90;;;0.30;99.90;;;;;;5093119;28;20422;-82
2021/03/18 00:18:30;;;;;;;7.10;4.60;;;0.30;99.90;;;;;;5093212;28;20399;-82
2021/03/18 00:20:56;;;;;;;4.20;3.80;;;0.30;99.90;;;;;;5093586;28;20443;-79
2021/03/18 00:23:22;;;;;;;4.77;3.93;;;0.20;99.90;;;;;;5093128;28;20422;-79
2021/03/18 00:25:49;;;;;;;5.37;4.27;;;0.20;99.90;;;;;;5092782;28;20475;-79
2021/03/18 00:28:16;;;;;;;6.20;4.27;;;0.20;99.90;;;;;;5093083;28;20436;-79
2021/03/18 00:30:42;;;;;;;7.50;3.77;;;0.20;99.90;;;;;;5093049;28;20478;-79
2021/03/18 00:33:08;;;;;;;7.57;4.60;;;0.20;99.90;;;;;;5093182;28;20780;-82
2021/03/18 00:35:35;;;;;;;7.97;4.30;;;0.20;99.90;;;;;;5093206;28;20418;-78
2021/03/18 00:38:01;;;;;;;5.13;3.97;;;0.30;99.90;;;;;;5092702;28;21047;-78
2021/03/18 00:40:29;;;;;;;8.33;4.17;;;0.30;99.90;;;;;;5093175;28;20443;-82
2021/03/18 00:43:00;;;;;;;9.17;5.03;;;0.30;99.90;;;;;;5092947;28;20422;-82
2021/03/18 00:45:29;;;;;;;5.53;4.13;;;0.30;99.90;;;;;;5093008;28;20493;-83
2021/03/18 00:47:56;;;;;;;4.93;3.90;;;0.40;99.90;;;;;;5092834;28;20434;-83
2021/03/18 00:50:28;;;;;;;4.70;4.00;;;0.50;99.90;;;;;;5092888;28;20471;-83
2021/03/18 00:52:55;;;;;;;6.53;4.73;;;0.50;99.90;;;;;;5092548;28;20471;-83
2021/03/18 00:55:21;;;;;;;4.97;4.10;;;0.50;99.90;;;;;;5096588;28;20471;-83
2021/03/18 00:57:48;;;;;;;6.37;4.43;;;0.50;99.90;;;;;;5096574;28;20454;-83
2021/03/18 01:00:20;;;;;;;4.80;3.63;;;0.50;99.90;;;;;;5096467;28;20406;-83
2021/03/18 01:02:47;;;;;;;4.87;4.20;;;0.50;99.90;;;;;;5096902;28;20383;-79
2021/03/18 01:05:18;;;;;;;5.97;4.47;;;0.50;99.90;;;;;;5096048;28;20410;-79
2021/03/18 01:07:44;;;;;;;4.83;4.13;;;0.50;99.90;;;;;;5096185;28;20841;-79
2021/03/18 01:10:13;;;;;;;5.80;4.00;;;0.40;99.90;;;;;;5095906;28;20991;-79
2021/03/18 01:12:39;;;;;;;6.20;3.80;;;0.40;99.90;;;;;;5095845;28;20440;-79
2021/03/18 01:15:07;;;;;;;5.30;4.30;;;0.40;99.90;;;;;;5096053;28;20479;-79
2021/03/18 01:17:34;;;;;;;6.23;5.03;;;0.30;99.90;;;;;;5096018;28;20460;-79
2021/03/18 01:20:01;;;;;;;4.93;3.77;;;0.30;99.90;;;;;;5096000;28;21043;-79
2021/03/18 01:22:27;;;;;;;9.50;3.80;;;0.30;99.90;;;;;;5096015;28;20407;-79
2021/03/18 01:24:54;;;;;;;5.17;3.43;;;0.30;99.90;;;;;;5095967;28;20424;-79
2021/03/18 01:27:21;;;;;;;6.73;4.30;;;0.30;99.90;;;;;;5095577;28;20496;-79
2021/03/18 01:29:47;;;;;;;5.80;4.10;;;0.30;99.90;;;;;;5095498;28;20926;-79
2021/03/18 01:32:13;;;;;;;5.00;3.70;;;0.30;99.90;;;;;;5095753;28;20444;-79
2021/03/18 01:34:40;;;;;;;5.17;4.67;;;0.40;99.90;;;;;;5095741;28;20447;-79
2021/03/18 01:37:06;;;;;;;7.13;4.40;;;0.40;99.90;;;;;;5095664;28;20442;-79
2021/03/18 01:39:33;;;;;;;4.90;4.00;;;0.50;99.90;;;;;;5095662;28;20432;-79
2021/03/18 01:41:59;;;;;;;6.83;4.40;;;0.50;99.90;;;;;;5095759;28;20847;-78
2021/03/18 01:44:25;;;;;;;5.10;4.20;;;0.60;99.90;;;;;;5095627;28;20421;-78
2021/03/18 01:46:51;;;;;;;4.80;4.27;;;0.60;99.90;;;;;;5095142;28;20961;-78
2021/03/18 01:49:18;;;;;;;4.57;4.17;;;0.60;99.90;;;;;;5095229;28;20411;-78
2021/03/18 01:51:45;;;;;;;4.83;3.60;;;0.70;99.90;;;;;;5095130;28;20457;-78
2021/03/18 01:54:12;;;;;;;3.80;3.50;;;0.70;99.90;;;;;;5095747;28;20473;-77
2021/03/18 01:56:38;;;;;;;5.37;3.60;;;0.70;99.90;;;;;;5095036;28;20434;-77
2021/03/18 01:59:04;;;;;;;3.90;3.60;;;0.70;99.90;;;;;;5094964;28;20905;-77
2021/03/18 02:01:31;;;;;;;6.90;3.13;;;0.70;99.90;;;;;;5095233;28;20452;-77
2021/03/18 02:03:57;;;;;;;5.07;3.70;;;0.70;99.90;;;;;;5095174;28;20417;-77
2021/03/18 02:06:24;;;;;;;3.70;3.40;;;0.70;99.90;;;;;;5094040;28;20479;-77
2021/03/18 02:08:51;;;;;;;3.40;3.03;;;0.70;99.90;;;;;;5094761;28;20935;-77
2021/03/18 02:11:17;;;;;;;5.10;3.57;;;0.70;99.90;;;;;;5094749;28;20448;-77
2021/03/18 02:13:43;;;;;;;7.10;4.17;;;0.70;99.90;;;;;;5094960;28;20471;-77
2021/03/18 02:16:11;;;;;;;4.00;3.47;;;0.60;99.90;;;;;;5094873;28;20411;-77
2021/03/18 02:18:47;;;;;;;7.00;3.70;;;0.70;99.90;;;;;;5094611;28;20433;-77
2021/03/18 02:21:46;;;;;;;7.73;3.73;;;0.70;99.90;;;;;;5095089;28;20407;-77
2021/03/18 02:24:33;;;;;;;3.83;3.43;;;0.70;99.90;;;;;;5094814;28;20450;-77
2021/03/18 02:27:38;;;;;;;3.97;3.37;;;0.70;99.90;;;;;;5094734;28;20430;-77
2021/03/18 02:30:37;;;;;;;6.00;4.10;;;0.70;99.90;;;;;;5094686;28;20418;-77
2021/03/18 02:34:00;;;;;;;3.87;3.17;;;0.70;99.90;;;;;;5061324;28;20425;-78
2021/03/18 02:36:40;;;;;;;3.73;3.07;;;0.70;99.90;;;;;;5038141;28;21000;-78
2021/03/18 02:39:10;;;;;;;6.40;3.70;;;0.70;99.90;;;;;;5094530;28;20434;-78
2021/03/18 02:41:44;;;;;;;7.73;3.70;;;0.70;99.90;;;;;;5094184;28;20830;-78
2021/03/18 02:44:14;;;;;;;4.47;3.67;;;0.70;99.90;;;;;;5094990;28;20415;-78
2021/03/18 02:46:41;;;;;;;8.30;4.23;;;0.70;99.90;;;;;;5094337;28;20442;-78
2021/03/18 02:49:09;;;;;;;4.40;3.77;;;0.70;99.90;;;;;;5094300;28;20485;-78
2021/03/18 02:51:40;;;;;;;5.60;3.93;;;0.80;99.90;;;;;;5093964;28;20462;-78
2021/03/18 02:54:08;;;;;;;4.10;3.60;;;0.70;99.90;;;;;;5094523;28;20483;-78
2021/03/18 02:56:37;;;;;;;5.10;4.20;;;0.70;99.90;;;;;;5094164;28;20468;-78
2021/03/18 02:59:05;;;;;;;4.20;3.37;;;0.70;99.90;;;;;;5094127;28;20448;-78
2021/03/18 03:01:32;;;;;;;4.47;3.93;;;0.70;99.90;;;;;;5094108;28;20452;-78
2021/03/18 03:04:00;;;;;;;6.40;3.93;;;0.70;99.90;;;;;;5094696;28;20410;-78
2021/03/18 03:06:29;;;;;;;5.63;4.40;;;0.70;99.90;;;;;;5094178;28;20434;-84
2021/03/18 03:08:56;;;;;;;7.07;4.27;;;0.70;99.90;;;;;;5094147;28;20445;-85
2021/03/18 03:11:25;;;;;;;7.73;4.27;;;0.70;99.90;;;;;;5094094;28;20452;-84
2021/03/18 03:13:53;;;;;;;6.50;3.77;;;0.70;99.90;;;;;;5094230;28;20479;-77
2021/03/18 03:16:22;;;;;;;5.87;4.30;;;0.70;99.90;;;;;;5093262;28;20472;-77
2021/03/18 03:18:50;;;;;;;5.03;4.50;;;0.70;99.90;;;;;;5093524;28;20962;-77
2021/03/18 03:21:18;;;;;;;4.87;3.63;;;0.70;99.90;;;;;;5093773;28;20459;-77
2021/03/18 03:23:45;;;;;;;4.93;3.93;;;0.80;99.90;;;;;;5093581;28;20414;-76
2021/03/18 03:26:14;;;;;;;5.47;3.97;;;0.80;99.90;;;;;;5093670;28;20490;-76
2021/03/18 03:28:41;;;;;;;7.20;4.33;;;0.80;99.90;;;;;;5093735;28;20444;-76
2021/03/18 03:31:08;;;;;;;5.67;5.10;;;0.80;99.90;;;;;;5093620;28;20455;-76
2021/03/18 03:33:34;;;;;;;5.70;4.30;;;0.80;99.90;;;;;;5093443;28;20464;-82
2021/03/18 03:36:01;;;;;;;9.60;5.13;;;0.80;99.90;;;;;;5093746;28;20453;-78
2021/03/18 03:38:28;;;;;;;5.60;4.33;;;0.90;99.90;;;;;;5093287;28;20931;-78
2021/03/18 03:40:54;;;;;;;5.63;4.60;;;0.90;99.90;;;;;;5093512;28;20448;-78
2021/03/18 03:43:22;;;;;;;5.77;4.40;;;0.90;99.90;;;;;;5093670;28;20485;-77
2021/03/18 03:45:49;;;;;;;5.70;3.87;;;0.90;99.90;;;;;;5093524;28;20407;-77
2021/03/18 03:48:15;;;;;;;5.17;4.20;;;0.90;99.90;;;;;;5093645;28;20511;-77
2021/03/18 03:50:42;;;;;;;5.57;4.30;;;0.90;99.90;;;;;;5093174;28;20452;-77
2021/03/18 03:53:18;;;;;;;6.80;4.93;;;0.90;99.90;;;;;;5093148;28;20424;-77
2021/03/18 03:55:52;;;;;;;5.73;4.23;;;0.90;99.90;;;;;;5093446;28;20409;-85
2021/03/18 03:58:34;;;;;;;6.50;5.03;;;0.90;99.90;;;;;;5093680;28;20431;-84
2021/03/18 04:01:03;;;;;;;6.70;4.80;;;0.90;99.90;;;;;;5093251;28;20981;-84
2021/03/18 04:03:31;;;;;;;7.00;4.43;;;0.90;99.90;;;;;;5093070;28;20451;-84
2021/03/18 04:05:59;;;;;;;8.60;4.20;;;0.90;99.90;;;;;;5093402;28;20785;-85
2021/03/18 04:08:28;;;;;;;8.20;5.07;;;0.90;99.90;;;;;;5093214;28;20451;-84
2021/03/18 04:10:57;;;;;;;9.50;4.83;;;0.90;99.90;;;;;;5093379;28;20422;-85
2021/03/18 04:13:26;;;;;;;7.27;4.73;;;0.90;99.90;;;;;;5093645;28;20436;-77
2021/03/18 04:15:53;;;;;;;5.67;4.30;;;1.00;99.90;;;;;;5093117;28;20407;-78
2021/03/18 04:18:20;;;;;;;5.80;4.90;;;1.00;99.90;;;;;;5094092;28;20391;-84
2021/03/18 04:20:48;;;;;;;7.00;5.07;;;1.00;99.90;;;;;;5093622;28;20447;-82
2021/03/18 04:23:16;;;;;;;5.50;4.13;;;1.00;99.90;;;;;;5093196;28;20449;-82
2021/03/18 04:25:43;;;;;;;7.20;4.47;;;1.00;99.90;;;;;;5093132;28;20452;-82
2021/03/18 04:28:10;;;;;;;12.77;5.40;;;1.00;99.90;;;;;;5093554;28;20517;-82
2021/03/18 04:30:39;;;;;;;9.80;4.33;;;0.90;99.90;;;;;;5097108;28;20525;-82
2021/03/18 04:33:07;;;;;;;10.30;5.00;;;0.90;99.90;;;;;;5096650;28;20432;-82
2021/03/18 04:35:34;;;;;;;7.33;5.00;;;0.90;99.90;;;;;;5096652;28;20475;-82
2021/03/18 04:38:01;;;;;;;8.00;5.10;;;0.90;99.90;;;;;;5097124;28;20475;-85
2021/03/18 04:40:28;;;;;;;7.50;5.10;;;1.00;99.90;;;;;;5096733;28;20435;-85
2021/03/18 04:42:56;;;;;;;6.40;4.63;;;1.00;99.90;;;;;;5096968;28;20501;-82
2021/03/18 04:45:28;;;;;;;5.73;4.93;;;0.90;99.90;;;;;;5096765;28;20448;-82
2021/03/18 04:47:55;;;;;;;7.40;4.50;;;0.90;99.90;;;;;;5096795;28;20471;-82
2021/03/18 04:50:24;;;;;;;5.73;4.57;;;0.90;99.90;;;;;;5097140;28;20436;-84
2021/03/18 04:52:51;;;;;;;8.77;5.83;;;1.00;99.90;;;;;;5107405;28;20873;-84
2021/03/18 04:55:19;;;;;;;6.77;4.90;;;1.00;99.90;;;;;;5096714;28;20505;-78
2021/03/18 04:57:54;;;;;;;6.67;4.83;;;1.00;99.90;;;;;;5096134;28;20525;-78
2021/03/18 05:00:21;;;;;;;7.33;4.90;;;0.90;99.90;;;;;;5097242;28;20427;-82
2021/03/18 05:02:49;;;;;;;9.20;5.03;;;0.90;99.90;;;;;;5096666;28;20440;-84
2021/03/18 05:05:19;;;;;;;8.97;4.40;;;1.00;99.90;;;;;;5096434;28;20833;-84
2021/03/18 05:07:47;;;;;;;7.30;4.90;;;1.00;99.90;;;;;;5096424;28;20471;-85
2021/03/18 05:10:16;;;;;;;10.37;4.93;;;1.00;99.90;;;;;;5096082;28;20448;-84
2021/03/18 05:12:43;;;;;;;6.80;5.00;;;1.00;99.90;;;;;;5096559;28;20577;-84
2021/03/18 05:15:13;;;;;;;7.90;5.17;;;1.00;99.90;;;;;;5095890;28;20519;-84
2021/03/18 05:17:39;;;;;;;12.27;5.17;;;1.00;99.90;;;;;;5096145;28;20475;-85
2021/03/18 05:20:08;;;;;;;6.70;5.07;;;1.00;99.90;;;;;;5096181;28;20443;-84
2021/03/18 05:22:35;;;;;;;5.10;4.50;;;1.00;99.90;;;;;;5096310;28;20432;-84
2021/03/18 05:25:03;;;;;;;7.13;5.37;;;1.00;99.90;;;;;;5096219;28;20440;-84
2021/03/18 05:27:29;;;;;;;8.40;5.10;;;1.10;99.90;;;;;;5114623;28;20442;-84
2021/03/18 05:29:56;;;;;;;6.63;5.27;;;1.10;99.90;;;;;;5105716;28;20399;-84
2021/03/18 05:32:22;;;;;;;6.20;4.87;;;1.10;99.90;;;;;;5096347;28;20505;-77
2021/03/18 05:34:48;;;;;;;5.50;4.47;;;1.10;99.90;;;;;;5095448;28;20464;-76
2021/03/18 05:37:14;;;;;;;7.47;5.87;;;1.10;99.90;;;;;;5095690;28;20474;-77
2021/03/18 05:39:42;;;;;;;6.37;5.27;;;1.00;99.90;;;;;;5095533;28;20424;-77
2021/03/18 05:42:08;;;;;;;6.87;4.33;;;1.00;99.90;;;;;;5095720;28;20799;-84
2021/03/18 05:44:34;;;;;;;10.27;5.90;;;1.00;99.90;;;;;;5095491;28;20884;-85
2021/03/18 05:47:02;;;;;;;5.87;4.70;;;1.00;99.90;;;;;;5095671;28;20468;-84
2021/03/18 05:49:29;;;;;;;5.43;4.17;;;1.00;99.90;;;;;;5095306;28;20448;-85
2021/03/18 05:51:57;;;;;;;6.63;4.20;;;1.00;99.90;;;;;;5095209;28;20484;-84
2021/03/18 05:54:24;;;;;;;8.50;5.00;;;1.00;99.90;;;;;;5095394;28;20458;-85
2021/03/18 05:56:53;;;;;;;5.97;4.40;;;1.00;99.90;;;;;;5095500;28;20471;-85
2021/03/18 05:59:19;;;;;;;6.93;4.47;;;1.00;99.90;;;;;;5095558;28;20788;-85
2021/03/18 06:01:45;;;;;;;7.63;4.87;;;1.00;99.90;;;;;;5095265;28;20411;-85
2021/03/18 06:04:12;;;;;;;6.20;4.53;;;1.10;99.90;;;;;;5095390;28;20420;-85
2021/03/18 06:06:39;;;;;;;5.87;4.90;;;1.00;99.90;;;;;;5095037;28;20482;-85
2021/03/18 06:09:06;;;;;;;6.80;5.33;;;1.10;99.90;;;;;;5095231;28;20506;-85
2021/03/18 06:11:33;;;;;;;5.57;4.80;;;1.10;99.90;;;;;;5095377;28;20466;-85
2021/03/18 06:14:00;;;;;;;7.80;5.57;;;1.10;99.90;;;;;;5094869;28;20960;-85
2021/03/18 06:16:27;;;;;;;8.50;5.40;;;1.10;99.90;;;;;;5095091;28;20497;-85
2021/03/18 06:18:54;;;;;;;8.83;6.00;;;1.10;99.90;;;;;;5095066;28;20493;-85
2021/03/18 06:21:45;;;;;;;12.10;5.27;;;1.10;99.90;;;;;;5095009;28;20501;-85
2021/03/18 06:24:11;;;;;;;7.00;5.47;;;1.20;99.90;;;;;;5095064;28;20435;-85
2021/03/18 06:26:38;;;;;;;9.53;6.17;;;1.20;99.90;;;;;;5094871;28;20464;-85
2021/03/18 06:29:26;;;;;;;10.53;6.13;;;1.30;99.90;;;;;;5095109;28;20465;-83
2021/03/18 06:31:52;;;;;;;9.33;5.17;;;1.40;99.90;;;;;;5094811;28;20481;-78
2021/03/18 06:34:36;;;;;;;8.60;5.80;;;1.40;99.90;;;;;;5094506;28;20480;-78
2021/03/18 06:37:03;;;;;;;6.77;5.70;;;1.50;99.90;;;;;;5094541;28;20528;-79
2021/03/18 06:39:30;;;;;;;6.90;5.70;;;1.60;99.90;;;;;;5094492;28;20448;-78
2021/03/18 06:41:59;;;;;;;9.83;6.40;;;1.70;99.90;;;;;;5094449;28;20463;-79
2021/03/18 06:44:28;;;;;;;9.50;6.10;;;1.80;99.90;;;;;;5094443;28;20433;-79
2021/03/18 06:46:56;;;;;;;7.23;5.90;;;1.80;99.90;;;;;;5093945;28;21017;-79
2021/03/18 06:49:24;;;;;;;12.53;6.60;;;1.90;99.90;;;;;;5094346;28;20443;-78
2021/03/18 06:52:01;;;;;;;11.60;6.20;;;2.00;99.90;;;;;;5093567;28;20476;-82
2021/03/18 06:54:31;;;;;;;7.90;6.00;;;2.10;99.90;;;;;;5094247;28;20467;-82
2021/03/18 06:57:00;;;;;;;7.80;5.33;;;2.20;99.90;;;;;;5094178;28;20468;-82
2021/03/18 06:59:28;;;;;;;9.17;5.80;;;2.30;99.90;;;;;;5093899;28;20443;-82
2021/03/18 07:02:08;;;;;;;7.67;6.13;;;2.40;99.90;;;;;;5093906;28;20824;-79
2021/03/18 07:04:39;;;;;;;10.83;6.60;;;2.60;99.90;;;;;;5094335;28;20428;-85
2021/03/18 07:07:06;;;;;;;11.13;6.00;;;2.70;99.90;;;;;;5094184;28;20439;-85
2021/03/18 07:09:32;;;;;;;6.23;5.63;;;2.80;99.90;;;;;;5094895;28;20448;-85
2021/03/18 07:12:00;;;;;;;9.30;6.20;;;2.80;99.90;;;;;;5093916;28;20966;-85
2021/03/18 07:14:37;;;;;;;10.30;6.47;;;2.90;99.90;;;;;;5093694;28;20981;-85
2021/03/18 07:17:03;;;;;;;8.90;5.37;;;2.90;99.90;;;;;;5094088;28;20463;-85
2021/03/18 07:19:30;;;;;;;8.97;4.40;;;3.00;99.90;;;;;;5094060;28;20432;-85
2021/03/18 07:21:59;;;;;;;6.77;5.90;;;3.10;99.90;;;;;;5094038;28;20441;-86
2021/03/18 07:24:32;;;;;;;10.20;6.07;;;3.10;99.90;;;;;;5094056;28;20420;-85
2021/03/18 07:27:06;;;;;;;7.80;5.70;;;3.20;99.90;;;;;;5094122;28;20597;-85
2021/03/18 07:29:33;;;;;;;8.47;4.77;;;3.20;99.90;;;;;;5093497;28;21020;-86
2021/03/18 07:32:00;;;;;;;8.17;6.20;;;3.20;99.90;;;;;;5093919;28;20481;-86
2021/03/18 07:34:27;;;;;;;9.13;5.80;;;3.20;99.90;;;;;;5093330;28;20468;-86
2021/03/18 07:36:57;;;;;;;9.87;6.30;;;3.20;99.90;;;;;;5093618;28;20472;-86
2021/03/18 07:39:25;;;;;;;13.57;6.60;;;3.20;99.90;;;;;;5093739;28;20432;-86
2021/03/18 07:41:53;;;;;;;7.50;5.40;;;3.20;99.90;;;;;;5093919;28;20444;-86
2021/03/18 07:44:21;;;;;;;11.27;6.97;;;3.20;99.90;;;;;;5093302;28;20795;-85
2021/03/18 07:46:50;;;;;;;8.00;6.03;;;3.10;99.90;;;;;;5093755;28;20468;-86
2021/03/18 07:49:19;;;;;;;10.30;5.87;;;3.20;99.90;;;;;;5093863;28;20463;-85
2021/03/18 07:51:49;;;;;;;7.63;5.63;;;3.20;99.90;;;;;;5093453;28;20472;-86
2021/03/18 07:54:18;;;;;;;9.03;5.37;;;3.30;99.90;;;;;;5093631;28;20481;-85
2021/03/18 07:56:46;;;;;;;6.60;5.43;;;3.40;99.90;;;;;;5093800;28;20989;-85
2021/03/18 07:59:13;;;;;;;13.00;5.87;;;3.50;99.90;;;;;;5093793;28;20452;-85
2021/03/18 08:01:40;;;;;;;8.53;5.23;;;3.60;99.90;;;;;;5093526;28;20448;-86
2021/03/18 08:04:10;;;;;;;9.87;6.00;;;3.60;99.90;;;;;;5095642;28;20446;-86
2021/03/18 08:06:54;;;;;;;8.20;5.53;;;3.60;99.90;;;;;;5097557;28;20475;-79
2021/03/18 08:09:53;;;;;;;9.73;6.00;;;3.60;99.90;;;;;;5097478;28;20431;-78
2021/03/18 08:12:55;;;;;;;9.53;5.70;;;3.50;99.90;;;;;;5015126;28;20947;-79
2021/03/18 08:15:34;;;;;;;9.80;6.00;;;3.50;99.90;;;;;;5015071;28;20459;-79
2021/03/18 08:18:38;;;;;;;10.57;5.93;;;3.60;99.90;;;;;;5078466;28;20493;-78
2021/03/18 08:21:09;;;;;;;8.30;5.53;;;3.70;99.90;;;;;;5097242;28;20435;-79
2021/03/18 08:23:52;;;;;;;10.20;6.23;;;3.70;99.90;;;;;;5097153;28;20778;-76
2021/03/18 08:26:47;;;;;;;9.10;5.47;;;3.70;99.90;;;;;;5097312;28;20460;-76
2021/03/18 08:29:20;;;;;;;8.47;4.70;;;3.60;99.90;;;;;;5097051;28;20424;-77
2021/03/18 08:31:56;;;;;;;8.53;6.60;;;3.70;99.90;;;;;;5097177;28;20432;-76
2021/03/18 08:34:52;;;;;;;6.93;5.63;;;4.00;99.90;;;;;;5096931;28;20463;-77
2021/03/18 08:37:37;;;;;;;7.13;5.10;;;4.10;99.90;;;;;;5097187;28;20831;-77
2021/03/18 08:40:07;;;;;;;9.43;6.40;;;4.40;99.90;;;;;;5096554;28;20927;-77
2021/03/18 08:42:44;;;;;;;10.60;6.57;;;4.60;99.90;;;;;;5096511;28;20442;-80
2021/03/18 08:45:41;;;;;;;11.40;6.57;;;4.40;99.90;;;;;;5096747;28;20424;-78
2021/03/18 08:48:16;;;;;;;7.07;5.20;;;4.50;99.90;;;;;;5088164;28;20836;-77
2021/03/18 08:51:06;;;;;;;7.57;5.60;;;4.40;99.90;;;;;;5096237;28;20976;-78
2021/03/18 08:53:38;;;;;;;13.20;7.33;;;4.30;99.90;;;;;;5096309;28;20938;-76
2021/03/18 08:56:07;;;;;;;7.07;5.57;;;4.30;99.90;;;;;;5096408;28;20468;-76
2021/03/18 08:58:55;;;;;;;8.60;5.73;;;4.20;99.90;;;;;;5096468;28;20478;-77
2021/03/18 09:01:22;;;;;;;10.57;6.30;;;4.10;99.90;;;;;;5096436;28;20444;-76
2021/03/18 09:03:56;;;;;;;8.67;6.13;;;4.20;99.90;;;;;;5096440;28;20436;-77
2021/03/18 09:06:22;;;;;;;11.90;6.33;;;4.20;99.90;;;;;;5096292;28;20468;-77
2021/03/18 09:08:49;;;;;;;10.70;6.73;;;4.20;99.90;;;;;;5096245;28;20451;-77
2021/03/18 09:11:24;;;;;;;7.90;5.87;;;4.20;99.90;;;;;;5095995;28;20915;-77
2021/03/18 09:13:51;;;;;;;7.93;5.43;;;4.20;99.90;;;;;;5095644;28;20427;-78
2021/03/18 09:16:20;;;;;;;10.20;7.10;;;4.10;99.90;;;;;;5096096;28;20475;-78
2021/03/18 09:18:47;;;;;;;10.23;7.13;;;4.00;99.90;;;;;;5096056;28;20440;-78
2021/03/18 09:21:13;;;;;;;9.67;7.40;;;3.90;99.90;;;;;;5095812;28;20447;-78
2021/03/18 09:23:41;;;;;;;10.37;6.93;;;4.00;99.90;;;;;;5096050;28;20489;-78
2021/03/18 09:26:09;;;;;;;8.80;6.07;;;3.90;99.90;;;;;;5095903;28;20435;-78
2021/03/18 09:28:38;;;;;;;9.40;5.80;;;4.00;99.90;;;;;;5096160;28;20431;-78
2021/03/18 09:31:05;;;;;;;10.37;6.50;;;4.10;99.90;;;;;;5095869;28;20432;-78
2021/03/18 09:33:33;;;;;;;9.27;6.50;;;4.10;99.90;;;;;;5095831;28;20440;-78
2021/03/18 09:36:02;;;;;;;8.07;5.80;;;4.20;99.90;;;;;;5095370;28;20530;-78
2021/03/18 09:38:31;;;;;;;8.73;6.07;;;5.40;99.90;;;;;;5095753;28;20444;-78
2021/03/18 09:40:59;;;;;;;11.30;5.67;;;7.30;99.90;;;;;;5095614;28;20420;-78
2021/03/18 09:43:27;;;;;;;10.20;5.73;;;8.40;99.90;;;;;;5095660;28;20436;-78
2021/03/18 09:45:58;;;;;;;7.50;6.03;;;8.50;99.90;;;;;;5095571;28;20420;-77
2021/03/18 09:48:26;;;;;;;6.60;5.90;;;8.20;99.90;;;;;;5095265;28;20437;-77
2021/03/18 09:50:54;;;;;;;8.30;5.47;;;7.80;99.90;;;;;;5095279;28;20478;-78
2021/03/18 09:53:23;;;;;;;15.07;7.90;;;8.00;99.90;;;;;;5095551;28;20527;-77
2021/03/18 09:55:49;;;;;;;6.20;5.30;;;7.80;99.90;;;;;;5095042;28;20475;-77
2021/03/18 09:58:17;;;;;;;6.77;5.70;;;7.70;99.90;;;;;;5095334;28;20460;-77
2021/03/18 10:00:43;;;;;;;8.73;5.80;;;7.20;99.90;;;;;;5095226;28;20436;-77
2021/03/18 10:03:11;;;;;;;6.00;5.40;;;6.70;99.90;;;;;;5095265;28;20432;-77
2021/03/18 10:05:37;;;;;;;11.37;6.40;;;6.30;99.90;;;;;;5095248;28;20437;-77
2021/03/18 10:08:04;;;;;;;8.57;6.60;;;5.90;99.90;;;;;;5095178;28;20480;-77
2021/03/18 10:10:33;;;;;;;9.93;6.83;;;5.70;99.90;;;;;;5095184;28;20436;-77
2021/03/18 10:12:59;;;;;;;10.10;7.57;;;5.60;99.90;;;;;;5094903;28;20436;-77
2021/03/18 10:15:26;;;;;;;7.77;5.50;;;5.60;99.90;;;;;;5095838;28;20529;-77
2021/03/18 10:17:54;;;;;;;6.53;5.40;;;5.60;99.90;;;;;;5095031;28;20533;-77
2021/03/18 10:20:25;;;;;;;6.93;4.80;;;5.50;99.90;;;;;;5094970;28;20413;-77
2021/03/18 10:22:58;;;;;;;9.40;6.97;;;5.50;99.90;;;;;;5094648;28;20969;-77
2021/03/18 10:25:27;;;;;;;7.87;5.70;;;5.50;99.90;;;;;;5094407;28;20420;-81
2021/03/18 10:28:01;;;;;;;8.80;6.17;;;5.50;99.90;;;;;;5093988;28;20978;-82
2021/03/18 10:30:28;;;;;;;7.90;5.47;;;5.50;99.90;;;;;;5094808;28;20462;-77
2021/03/18 10:33:04;;;;;;;9.47;5.47;;;5.70;99.90;;;;;;5094676;28;20432;-78
2021/03/18 10:35:33;;;;;;;6.93;5.20;;;5.80;99.90;;;;;;5094604;28;20475;-78
2021/03/18 10:37:59;;;;;;;7.70;5.17;;;5.90;99.90;;;;;;5094207;28;20475;-77
2021/03/18 10:40:27;;;;;;;7.60;4.67;;;5.70;99.90;;;;;;5094295;28;20783;-77
2021/03/18 10:42:57;;;;;;;7.87;5.33;;;5.90;99.90;;;;;;5094538;28;20436;-77
2021/03/18 10:45:26;;;;;;;6.27;5.60;;;5.90;99.90;;;;;;5094148;28;20428;-77
2021/03/18 10:47:54;;;;;;;7.23;5.43;;;5.90;99.90;;;;;;5094059;28;20459;-77
2021/03/18 10:50:24;;;;;;;6.20;4.73;;;6.00;99.90;;;;;;5094081;28;20936;-77
2021/03/18 10:52:57;;;;;;;7.67;5.37;;;5.90;99.90;;;;;;5093876;28;20483;-77
2021/03/18 10:55:29;;;;;;;12.37;6.07;;;5.90;99.90;;;;;;5094238;28;20467;-77
2021/03/18 10:58:01;;;;;;;7.83;5.50;;;5.80;99.90;;;;;;5093798;28;20559;-77
2021/03/18 11:00:30;;;;;;;6.80;4.83;;;5.60;99.90;;;;;;5094239;28;20864;-78
2021/03/18 11:02:58;;;;;;;7.60;5.03;;;5.40;99.90;;;;;;5094113;28;20454;-77
2021/03/18 11:05:28;;;;;;;7.17;4.90;;;5.40;99.90;;;;;;5094074;28;20436;-77
2021/03/18 11:07:56;;;;;;;9.20;4.63;;;5.50;99.90;;;;;;5093915;28;20468;-77
2021/03/18 11:10:28;;;;;;;7.17;5.27;;;5.50;99.90;;;;;;5093676;28;20428;-78
2021/03/18 11:12:58;;;;;;;9.00;5.63;;;5.50;99.90;;;;;;5094024;28;20436;-77
2021/03/18 11:15:24;;;;;;;6.53;5.20;;;5.70;99.90;;;;;;5094357;28;20464;-87
2021/03/18 11:18:04;;;;;;;6.23;4.03;;;5.60;99.90;;;;;;5094572;28;20466;-87
2021/03/18 11:20:34;;;;;;;6.00;3.93;;;5.70;99.90;;;;;;5094693;28;20436;-87
2021/03/18 11:23:02;;;;;;;4.23;3.33;;;5.80;99.90;;;;;;5094878;28;20800;-87
2021/03/18 11:25:28;;;;;;;5.20;3.97;;;5.90;99.90;;;;;;5092476;28;20424;-87
2021/03/18 11:27:55;;;;;;;3.43;3.13;;;6.00;99.90;;;;;;5090941;28;20455;-86
2021/03/18 11:30:31;;;;;;;3.47;3.00;;;6.00;99.90;;;;;;5094283;28;20436;-87
2021/03/18 11:33:15;;;;;;;4.30;2.70;;;6.00;99.90;;;;;;5094044;28;20903;-87
2021/03/18 11:35:43;;;;;;;3.70;3.00;;;6.10;99.90;;;;;;5094051;28;20547;-87
2021/03/18 11:38:11;;;;;;;6.70;3.37;;;6.20;99.90;;;;;;5094075;28;20464;-87
2021/03/18 11:40:37;;;;;;;9.87;3.57;;;6.30;99.90;;;;;;5094144;28;20428;-87
2021/03/18 11:43:05;;;;;;;2.90;2.60;;;6.40;99.90;;;;;;5094368;28;20462;-87
2021/03/18 11:45:32;;;;;;;4.67;2.37;;;6.60;99.90;;;;;;5093808;28;20432;-87
2021/03/18 11:47:58;;;;;;;4.63;2.80;;;6.50;98.60;;;;;;5093860;28;20475;-87
2021/03/18 11:50:24;;;;;;;9.43;3.17;;;6.50;96.90;;;;;;5093933;28;20478;-87
2021/03/18 11:52:51;;;;;;;4.30;3.40;;;6.60;98.40;;;;;;5093757;28;20483;-87
2021/03/18 11:55:18;;;;;;;3.50;2.33;;;6.60;97.40;;;;;;5094110;28;20459;-87
2021/03/18 11:57:45;;;;;;;3.97;2.13;;;6.70;94.60;;;;;;5094048;28;20517;-87
2021/03/18 12:00:13;;;;;;;4.40;3.23;;;6.80;95.40;;;;;;5093943;28;20440;-87
2021/03/18 12:02:39;;;;;;;2.67;2.27;;;6.80;97.10;;;;;;5093829;28;20895;-87
2021/03/18 12:05:07;;;;;;;2.70;2.40;;;7.00;98.10;;;;;;5093662;28;20439;-88
2021/03/18 12:07:34;;;;;;;2.00;1.90;;;7.20;97.40;;;;;;5093835;28;20994;-86
2021/03/18 12:10:00;;;;;;;2.60;2.40;;;7.30;92.80;;;;;;5093687;28;20401;-88
2021/03/18 12:12:27;;;;;;;3.70;2.73;;;7.50;92.70;;;;;;5093879;28;20436;-87
2021/03/18 12:14:54;;;;;;;4.63;2.60;;;7.50;94.00;;;;;;5093886;28;20472;-87
2021/03/18 12:17:20;;;;;;;3.47;2.50;;;7.50;92.60;;;;;;5093471;28;21000;-88
2021/03/18 12:19:46;;;;;;;3.10;2.90;;;7.30;89.60;;;;;;5093894;28;20432;-88
2021/03/18 12:22:13;;;;;;;5.33;3.37;;;7.40;89.20;;;;;;5093721;28;20413;-87
2021/03/18 12:24:39;;;;;;;3.07;2.80;;;7.40;92.20;;;;;;5093790;28;20437;-88
2021/03/18 12:27:06;;;;;;;3.83;3.03;;;7.30;91.90;;;;;;5093729;28;20475;-88
2021/03/18 12:29:33;;;;;;;5.13;2.97;;;7.30;92.50;;;;;;5093602;28;20433;-88
2021/03/18 12:31:59;;;;;;;4.77;3.50;;;7.20;91.50;;;;;;5093706;28;20504;-88
2021/03/18 12:34:25;;;;;;;3.90;3.50;;;7.30;90.90;;;;;;5093743;28;20468;-88
2021/03/18 12:36:52;;;;;;;4.10;3.20;;;7.40;91.60;;;;;;5093474;28;20467;-87
2021/03/18 12:39:18;;;;;;;4.30;3.50;;;7.10;92.10;;;;;;5093478;28;20420;-88
2021/03/18 12:41:44;;;;;;;3.03;2.73;;;7.20;94.20;;;;;;5093345;28;20428;-88
2021/03/18 12:44:11;;;;;;;3.33;3.07;;;7.20;97.00;;;;;;5093575;28;20465;-87
2021/03/18 12:46:38;;;;;;;4.43;3.10;;;7.30;97.80;;;;;;5093633;28;20524;-88
2021/03/18 12:49:05;;;;;;;5.20;3.73;;;7.30;97.10;;;;;;5093881;28;20428;-87
2021/03/18 12:51:31;;;;;;;5.00;2.70;;;7.00;98.90;;;;;;5097397;28;20486;-88
2021/03/18 12:53:57;;;;;;;4.83;3.30;;;6.80;99.10;;;;;;5097273;28;20440;-87
2021/03/18 12:56:25;;;;;;;3.70;3.17;;;6.50;99.90;;;;;;5097168;28;20541;-87
2021/03/18 12:58:51;;;;;;;4.30;2.80;;;6.30;99.90;;;;;;5097360;28;20475;-87
2021/03/18 13:01:18;;;;;;;4.33;3.53;;;6.00;99.90;;;;;;5096865;28;20416;-87
2021/03/18 13:03:45;;;;;;;4.20;2.90;;;6.00;99.90;;;;;;5097178;28;20453;-87
2021/03/18 13:06:11;;;;;;;3.80;3.20;;;5.90;99.90;;;;;;5096945;28;20834;-87
2021/03/18 13:08:38;;;;;;;3.47;3.17;;;5.90;99.90;;;;;;5096836;28;20462;-87